createdAt,value
2022-10-08T00:00:38.023Z,10.00
2022-10-08T00:10:38.051Z,11.90
2022-10-08T00:20:38.398Z,11.20
2022-10-08T00:30:38.428Z,13.10
2022-10-08T00:40:38.949Z,7.80
2022-10-08T00:50:38.775Z,9.50
2022-10-08T01:00:39.113Z,6.30
2022-10-08T01:10:39.163Z,9.10
2022-10-08T01:20:39.701Z,7.90
2022-10-08T01:30:39.549Z,10.80
2022-10-08T01:40:39.879Z,13.30
2022-10-08T01:50:39.899Z,10.60
2022-10-08T02:00:40.217Z,6.60
2022-10-08T02:10:40.236Z,7.20
2022-10-08T02:20:40.577Z,8.00
2022-10-08T02:30:40.606Z,6.10
2022-10-08T02:40:40.915Z,8.30
2022-10-08T02:50:40.950Z,7.80
2022-10-08T03:00:41.261Z,9.30
2022-10-08T03:10:41.298Z,9.50
2022-10-08T03:20:41.617Z,9.90
2022-10-08T03:30:41.719Z,14.70
2022-10-08T03:40:41.867Z,14.70
2022-10-08T03:50:41.888Z,7.20
2022-10-08T04:00:42.215Z,8.50
2022-10-08T04:10:42.229Z,7.30
2022-10-08T04:20:42.500Z,7.60
2022-10-08T04:30:42.782Z,7.40
2022-10-08T04:40:42.905Z,5.30
2022-10-08T04:50:42.935Z,7.10
2022-10-08T05:00:43.263Z,9.10
2022-10-08T05:10:43.279Z,12.50
2022-10-08T05:20:43.610Z,6.80
2022-10-08T05:30:43.642Z,7.20
2022-10-08T05:40:43.955Z,8.30
2022-10-08T05:50:43.973Z,8.40
2022-10-08T06:00:44.424Z,7.50
2022-10-08T06:10:44.434Z,6.60
2022-10-08T06:20:44.762Z,10.20
2022-10-08T06:30:44.810Z,6.60
2022-10-08T06:40:45.117Z,5.40
2022-10-08T06:50:45.139Z,8.30
2022-10-08T07:00:45.530Z,7.20
2022-10-08T07:10:45.590Z,8.60
2022-10-08T07:20:45.916Z,7.70
2022-10-08T07:30:45.947Z,7.20
2022-10-08T07:40:46.267Z,9.30
2022-10-08T07:50:46.293Z,6.70
2022-10-08T08:00:46.643Z,6.60
2022-10-08T08:10:46.696Z,6.20
2022-10-08T08:20:47.162Z,7.80
2022-10-08T08:30:47.190Z,6.40
2022-10-08T08:40:47.517Z,6.50
2022-10-08T08:50:48.899Z,32.90
2022-10-08T09:00:47.785Z,7.50
2022-10-08T09:10:47.859Z,4.40
2022-10-08T09:20:48.117Z,5.60
2022-10-08T09:30:48.275Z,10.10
2022-10-08T09:40:48.576Z,7.10
2022-10-08T09:50:48.596Z,10.40
2022-10-08T10:00:48.924Z,15.30
2022-10-08T10:10:48.955Z,8.20
2022-10-08T10:20:49.283Z,6.00
2022-10-08T10:30:49.356Z,7.30
2022-10-08T10:40:49.404Z,8.60
2022-10-08T10:50:49.643Z,7.00
2022-10-08T11:00:49.971Z,7.20
2022-10-08T11:10:49.991Z,7.80
2022-10-08T11:20:50.321Z,10.30
2022-10-08T11:30:50.400Z,10.60
2022-10-08T11:40:50.457Z,8.60
2022-10-08T11:50:50.679Z,11.30
2022-10-08T12:00:51.009Z,19.00
2022-10-08T12:10:51.045Z,17.60
2022-10-08T12:20:54.489Z,15.50
2022-10-08T12:30:51.557Z,13.80
2022-10-08T12:40:51.930Z,17.40
2022-10-08T12:50:51.945Z,15.30
2022-10-08T13:00:52.346Z,14.20
2022-10-08T13:10:52.398Z,17.20
2022-10-08T13:20:52.824Z,11.90
2022-10-08T13:30:52.854Z,18.70
2022-10-08T13:40:53.170Z,17.50
2022-10-08T13:50:53.200Z,22.10
2022-10-08T14:00:53.588Z,17.30
2022-10-08T14:10:53.635Z,16.30
2022-10-08T14:20:54.210Z,23.80
2022-10-08T14:30:54.032Z,23.90
2022-10-08T14:40:54.323Z,24.20
2022-10-08T14:50:54.351Z,23.70
2022-10-08T15:00:54.679Z,19.90
2022-10-08T15:10:54.720Z,18.10
2022-10-08T15:20:55.036Z,13.30
2022-10-08T15:30:55.079Z,20.00
2022-10-08T15:40:55.368Z,23.00
2022-10-08T15:50:55.398Z,19.20
2022-10-08T16:00:55.799Z,20.50
2022-10-08T16:10:58.170Z,23.20
2022-10-08T16:20:56.174Z,29.10
2022-10-08T16:30:56.214Z,23.90
2022-10-08T16:40:56.530Z,24.80
2022-10-08T16:50:56.558Z,25.60
2022-10-08T17:00:57.009Z,26.50
2022-10-08T17:10:56.933Z,26.80
2022-10-08T17:20:57.428Z,25.30
2022-10-08T17:30:57.313Z,26.90
2022-10-08T17:40:57.672Z,28.80
2022-10-08T17:50:57.777Z,24.00
2022-10-08T18:00:57.715Z,26.20
2022-10-08T18:10:57.757Z,22.80
2022-10-08T18:20:58.072Z,26.80
2022-10-08T18:30:58.174Z,14.80
2022-10-08T18:40:58.537Z,12.10
2022-10-08T18:50:58.713Z,11.60
2022-10-08T19:00:58.886Z,9.90
2022-10-08T19:10:58.722Z,14.10
2022-10-08T19:20:59.221Z,9.80
2022-10-08T19:30:59.159Z,9.30
2022-10-08T19:41:00.045Z,11.70
2022-10-08T19:50:59.579Z,12.20
2022-10-08T20:00:59.625Z,13.00
2022-10-08T20:10:59.786Z,9.80
2022-10-08T20:20:59.966Z,11.40
2022-10-08T20:31:00.024Z,9.70
2022-10-08T20:41:00.095Z,17.70
2022-10-08T20:51:00.335Z,25.60
2022-10-08T21:01:00.727Z,21.50
2022-10-08T21:11:00.753Z,27.60
2022-10-08T21:21:01.019Z,25.00
2022-10-08T21:31:04.137Z,22.10
2022-10-08T21:41:01.364Z,30.60
2022-10-08T21:51:01.397Z,25.20
2022-10-08T22:01:01.735Z,15.00
2022-10-08T22:11:01.808Z,18.70
2022-10-08T22:21:02.091Z,20.50
2022-10-08T22:31:02.172Z,16.40
2022-10-08T22:41:02.306Z,15.40
2022-10-08T22:51:02.324Z,14.80
2022-10-08T23:01:02.670Z,14.80
2022-10-08T23:11:02.708Z,17.90
2022-10-08T23:21:03.014Z,11.70
2022-10-08T23:31:03.033Z,13.90
2022-10-08T23:41:03.355Z,14.90
2022-10-08T23:51:03.373Z,11.40
